Time;durP1;ratioP1;P1;durP2;ratioP2;P2;SDS_P1;SDS_P2;PMS_P1;PMS_P2;Temp;Humidity;BMP_temperature;BMP_pressure;BME280_temperature;BME280_humidity;BME280_pressure;Samples;Min_cycle;Max_cycle;Signal;HPM_P1;HPM_P2
2023/03/14 00:00:22;;;;;;;17.98;3.50;;;;;;;10.73;83.58;98671.41;5087398;28;20135;-52
2023/03/14 00:02:55;;;;;;;11.85;3.05;;;;;;;10.79;83.65;98656.50;5075851;28;20169;-52
2023/03/14 00:05:22;;;;;;;15.77;3.85;;;;;;;10.79;83.75;98653.00;5071127;28;20124;-52
2023/03/14 00:07:49;;;;;;;16.10;4.50;;;;;;;10.79;83.65;98640.59;5075831;28;20101;-53
2023/03/14 00:10:16;;;;;;;13.82;4.05;;;;;;;10.81;83.25;98627.13;5071472;28;20051;-51
2023/03/14 00:12:43;;;;;;;15.45;4.10;;;;;;;10.74;82.55;98621.81;5070655;28;20058;-53
2023/03/14 00:15:11;;;;;;;17.92;4.13;;;;;;;10.79;83.31;98629.97;5067402;28;20071;-53
2023/03/14 00:17:38;;;;;;;18.92;3.88;;;;;;;10.76;82.74;98633.84;5074834;28;20397;-51
2023/03/14 00:20:08;;;;;;;16.67;3.25;;;;;;;10.87;82.42;98642.19;5070425;28;20041;-52
2023/03/14 00:22:35;;;;;;;15.68;3.50;;;;;;;10.82;83.32;98647.31;5075528;28;20047;-53
2023/03/14 00:25:02;;;;;;;20.08;3.70;;;;;;;10.72;83.28;98659.16;5071037;28;20056;-53
2023/03/14 00:27:29;;;;;;;15.43;2.42;;;;;;;10.80;82.86;98666.06;5075136;28;20049;-52
2023/03/14 00:29:56;;;;;;;20.85;3.22;;;;;;;10.80;83.01;98678.53;5071429;28;20267;-52
2023/03/14 00:32:23;;;;;;;10.65;2.50;;;;;;;10.81;83.53;98702.19;5072104;28;20067;-52
2023/03/14 00:34:50;;;;;;;14.82;2.95;;;;;;;10.93;84.32;98689.13;5075037;28;20045;-53
2023/03/14 00:37:17;;;;;;;10.52;2.45;;;;;;;10.91;88.39;98728.28;5070602;28;20041;-51
2023/03/14 00:39:43;;;;;;;20.83;3.38;;;;;;;10.67;93.55;98757.06;5073769;28;20457;-51
2023/03/14 00:42:10;;;;;;;23.95;2.83;;;;;;;10.05;98.53;98745.69;5070480;28;20375;-51
2023/03/14 00:44:37;;;;;;;13.57;2.35;;;;;;;9.92;100.00;98741.19;5074568;28;20032;-52
2023/03/14 00:47:06;;;;;;;17.00;3.05;;;;;;;9.84;100.00;98722.00;5067578;28;20406;-51
2023/03/14 00:49:33;;;;;;;11.60;2.42;;;;;;;9.83;100.00;98715.09;5073645;28;20481;-51
2023/03/14 00:52:01;;;;;;;14.07;2.65;;;;;;;9.68;100.00;98716.03;5070014;28;20397;-52
2023/03/14 00:54:28;;;;;;;12.63;2.17;;;;;;;9.59;100.00;98711.94;5074980;28;20521;-52
2023/03/14 00:56:55;;;;;;;13.35;2.80;;;;;;;9.44;100.00;98701.50;5070176;28;20040;-51
2023/03/14 00:59:21;;;;;;;14.98;2.10;;;;;;;9.33;100.00;98704.66;5074465;28;20140;-52
2023/03/14 01:01:48;;;;;;;12.23;2.30;;;;;;;9.39;100.00;98702.06;5069378;28;20068;-49
2023/03/14 01:04:15;;;;;;;11.77;1.95;;;;;;;9.27;100.00;98697.53;5071374;28;20036;-51
2023/03/14 01:06:41;;;;;;;10.05;1.70;;;;;;;9.25;100.00;98689.78;5075349;28;20352;-53
2023/03/14 01:09:10;;;;;;;11.75;2.05;;;;;;;9.18;100.00;98688.91;5070355;28;20040;-50
2023/03/14 01:11:37;;;;;;;8.63;1.55;;;;;;;9.10;100.00;98683.81;5075108;28;20094;-52
2023/03/14 01:14:04;;;;;;;10.02;1.80;;;;;;;9.16;100.00;98683.81;5085365;28;20044;-50
2023/03/14 01:16:33;;;;;;;10.05;2.05;;;;;;;9.07;100.00;98690.28;5074096;28;20040;-51
2023/03/14 01:19:02;;;;;;;10.30;1.60;;;;;;;8.99;100.00;98690.44;5081717;28;20087;-52
2023/03/14 01:21:32;;;;;;;12.25;2.00;;;;;;;8.84;100.00;98701.94;5076204;28;20371;-50
2023/03/14 01:24:01;;;;;;;14.00;1.75;;;;;;;8.81;100.00;98696.22;5070441;28;20072;-51
2023/03/14 01:26:31;;;;;;;7.82;1.60;;;;;;;8.83;100.00;98695.00;5074059;28;20109;-51
2023/03/14 01:28:58;;;;;;;9.85;1.65;;;;;;;8.88;100.00;98670.66;5084852;28;20329;-53
2023/03/14 01:31:26;;;;;;;13.85;2.08;;;;;;;9.01;100.00;98670.72;5074390;28;20032;-50
2023/03/14 01:33:53;;;;;;;12.50;2.05;;;;;;;8.94;100.00;98669.84;5068216;28;20250;-50
2023/03/14 01:36:20;;;;;;;11.38;1.80;;;;;;;9.05;100.00;98652.63;5070755;28;20071;-53
2023/03/14 01:38:47;;;;;;;9.88;2.13;;;;;;;9.05;100.00;98657.13;5074009;28;20040;-50
2023/03/14 01:41:20;;;;;;;6.88;1.63;;;;;;;9.02;100.00;98653.00;5070691;28;20045;-52
2023/03/14 01:43:48;;;;;;;13.10;2.72;;;;;;;9.11;100.00;98658.97;5072762;28;20119;-53
2023/03/14 01:46:22;;;;;;;16.98;2.50;;;;;;;9.12;100.00;98652.69;5069136;28;20040;-54
2023/03/14 01:49:05;;;;;;;10.02;2.13;;;;;;;9.21;100.00;98659.44;5073887;28;20174;-52
2023/03/14 01:51:56;;;;;;;13.98;2.30;;;;;;;9.27;100.00;98657.84;5066088;28;20068;-53
2023/03/14 01:54:35;;;;;;;13.23;2.05;;;;;;;9.30;100.00;98660.91;5076047;28;20075;-50
2023/03/14 01:57:11;;;;;;;12.15;2.20;;;;;;;9.37;100.00;98640.59;5068988;28;20413;-54
2023/03/14 01:59:41;;;;;;;16.13;2.25;;;;;;;9.32;100.00;98648.28;5073348;28;20131;-50
2023/03/14 02:02:11;;;;;;;16.10;2.25;;;;;;;9.37;100.00;98645.06;5068929;28;20048;-51
2023/03/14 02:04:40;;;;;;;17.17;2.17;;;;;;;9.37;100.00;98637.94;5072693;28;20040;-53
2023/03/14 02:07:30;;;;;;;14.02;2.13;;;;;;;9.34;100.00;98646.25;5063185;28;20111;-52
2023/03/14 02:10:07;;;;;;;18.00;3.72;;;;;;;9.29;99.93;98646.03;5073361;28;20446;-52
2023/03/14 02:12:34;;;;;;;13.80;2.00;;;;;;;9.33;100.00;98641.16;5048396;28;20051;-52
2023/03/14 02:15:10;;;;;;;8.90;2.00;;;;;;;9.35;99.88;98650.56;5072759;28;20045;-50
2023/03/14 02:17:49;;;;;;;7.53;1.83;;;;;;;9.31;100.00;98654.59;5068459;28;20474;-53
2023/03/14 02:20:45;;;;;;;18.40;2.92;;;;;;;9.29;99.88;98650.50;5073731;28;20106;-54
2023/03/14 02:23:19;;;;;;;14.07;2.15;;;;;;;9.32;100.00;98647.47;5065921;28;20028;-51
2023/03/14 02:25:57;;;;;;;13.15;2.53;;;;;;;9.35;98.42;98645.25;5072920;28;20482;-54
2023/03/14 02:28:23;;;;;;;9.20;2.17;;;;;;;9.24;99.74;98645.81;5072857;28;20398;-51
2023/03/14 02:30:54;;;;;;;14.95;1.95;;;;;;;9.25;100.00;98657.22;5069681;28;20102;-52
2023/03/14 02:33:22;;;;;;;11.00;2.05;;;;;;;9.22;100.00;98663.69;5074651;28;20046;-52
2023/03/14 02:35:55;;;;;;;9.88;1.95;;;;;;;9.19;100.00;98656.19;5068406;28;20091;-53
2023/03/14 02:38:44;;;;;;;11.65;2.30;;;;;;;9.23;100.00;98660.88;5072819;28;20126;-52
2023/03/14 02:41:11;;;;;;;9.55;2.40;;;;;;;9.18;100.00;98650.03;5083125;28;20044;-51
2023/03/14 02:43:43;;;;;;;9.25;1.95;;;;;;;9.27;100.00;98647.25;5071913;28;20040;-51
2023/03/14 02:46:16;;;;;;;10.05;1.95;;;;;;;9.22;100.00;98650.47;5068217;28;20044;-53
2023/03/14 02:48:49;;;;;;;13.60;2.35;;;;;;;9.28;100.00;98640.94;5085140;28;20064;-51
2023/03/14 02:51:16;;;;;;;10.18;2.00;;;;;;;9.31;100.00;98635.25;5068648;28;20040;-50
2023/03/14 02:53:46;;;;;;;13.57;1.95;;;;;;;9.36;99.45;98640.78;5072575;28;20041;-53
2023/03/14 02:56:14;;;;;;;14.30;2.20;;;;;;;9.36;100.00;98635.47;5063925;28;20048;-54
2023/03/14 02:58:40;;;;;;;16.75;2.42;;;;;;;9.29;99.85;98640.75;5072177;28;20036;-50
2023/03/14 03:01:19;;;;;;;9.88;2.10;;;;;;;9.26;100.00;98633.22;5067695;28;20048;-50
2023/03/14 03:03:45;;;;;;;14.70;3.08;;;;;;;9.28;100.00;98631.19;5072956;28;20047;-51
2023/03/14 03:06:12;;;;;;;14.35;2.38;;;;;;;9.31;99.56;98624.66;5068455;28;20062;-54
2023/03/14 03:08:39;;;;;;;14.93;2.72;;;;;;;9.22;99.90;98618.72;5072684;28;20124;-54
2023/03/14 03:11:06;;;;;;;14.73;2.85;;;;;;;9.29;100.00;98622.22;5068183;28;20048;-53
2023/03/14 03:13:34;;;;;;;14.60;2.00;;;;;;;9.35;100.00;98617.97;5067989;28;20398;-54
2023/03/14 03:16:03;;;;;;;13.90;2.15;;;;;;;9.34;100.00;98622.44;5072215;28;20453;-53
2023/03/14 03:18:30;;;;;;;17.10;2.80;;;;;;;9.33;100.00;98620.81;5067566;28;20041;-53
2023/03/14 03:21:01;;;;;;;14.82;2.53;;;;;;;9.32;100.00;98619.19;5073531;28;20047;-51
2023/03/14 03:23:28;;;;;;;16.73;2.42;;;;;;;9.28;100.00;98620.59;5067670;28;20501;-52
2023/03/14 03:25:57;;;;;;;15.00;2.70;;;;;;;9.12;100.00;98616.44;5072488;28;20040;-53
2023/03/14 03:28:24;;;;;;;18.90;2.47;;;;;;;9.07;100.00;98621.50;5064615;28;20052;-51
2023/03/14 03:30:51;;;;;;;10.45;2.13;;;;;;;9.22;100.00;98621.38;5072455;28;20045;-52
2023/03/14 03:33:18;;;;;;;17.08;2.72;;;;;;;9.31;100.00;98622.03;5072934;28;20044;-51
2023/03/14 03:35:47;;;;;;;16.55;2.58;;;;;;;9.23;100.00;98618.53;5067469;28;20407;-50
2023/03/14 03:38:17;;;;;;;11.27;2.38;;;;;;;9.17;100.00;98619.34;5072956;28;20043;-51
2023/03/14 03:40:45;;;;;;;18.30;2.50;;;;;;;9.15;100.00;98620.53;5066776;28;20048;-50
2023/03/14 03:43:12;;;;;;;20.75;3.22;;;;;;;9.14;100.00;98617.06;5072612;28;20115;-50
2023/03/14 03:45:41;;;;;;;19.60;2.80;;;;;;;9.13;100.00;98610.16;5063798;28;20034;-51
2023/03/14 03:48:08;;;;;;;17.75;2.65;;;;;;;9.12;100.00;98616.44;5072391;28;20098;-53
2023/03/14 03:50:35;;;;;;;17.90;2.60;;;;;;;9.07;100.00;98600.34;5068023;28;20064;-52
2023/03/14 03:53:02;;;;;;;14.02;2.50;;;;;;;9.00;100.00;98597.69;5072436;28;20539;-51
2023/03/14 03:55:29;;;;;;;14.63;2.38;;;;;;;9.05;100.00;98597.09;5067381;28;20071;-53
2023/03/14 03:57:55;;;;;;;19.55;2.72;;;;;;;8.93;100.00;98572.22;5071976;28;20043;-52
2023/03/14 04:00:22;;;;;;;19.60;3.00;;;;;;;9.03;100.00;98576.13;5064075;28;20048;-49
2023/03/14 04:02:49;;;;;;;16.33;2.45;;;;;;;8.90;100.00;98572.63;5072133;28;20040;-50
2023/03/14 04:05:17;;;;;;;16.45;2.67;;;;;;;8.93;100.00;98578.34;5072064;28;20051;-53
2023/03/14 04:07:51;;;;;;;19.42;2.80;;;;;;;8.95;100.00;98573.66;5069689;28;20052;-52
2023/03/14 04:10:23;;;;;;;21.38;2.97;;;;;;;8.93;100.00;98561.63;5071712;28;20040;-52
2023/03/14 04:13:03;;;;;;;16.20;2.70;;;;;;;8.87;100.00;98565.06;5057894;28;20051;-51
2023/03/14 04:15:32;;;;;;;23.10;2.83;;;;;;;8.86;100.00;98566.91;5056340;28;20498;-52
2023/03/14 04:18:03;;;;;;;15.80;2.97;;;;;;;8.88;100.00;98566.69;5066786;28;20048;-50
2023/03/14 04:20:34;;;;;;;22.70;3.10;;;;;;;8.84;100.00;98566.25;5070953;28;20529;-52
2023/03/14 04:23:02;;;;;;;27.70;3.58;;;;;;;8.90;100.00;98572.63;5067471;28;20120;-52
2023/03/14 04:25:29;;;;;;;18.27;3.88;;;;;;;8.90;100.00;98559.41;5071691;28;20098;-53
2023/03/14 04:27:57;;;;;;;32.67;4.18;;;;;;;8.94;100.00;98563.28;5068260;28;20040;-51
2023/03/14 04:30:27;;;;;;;23.90;4.35;;;;;;;8.84;100.00;98563.63;5075081;28;20072;-52
2023/03/14 04:32:58;;;;;;;23.23;3.70;;;;;;;8.88;100.00;98564.88;5071292;28;20039;-53
2023/03/14 04:35:27;;;;;;;20.88;3.70;;;;;;;8.90;100.00;98551.47;5071669;28;20086;-51
2023/03/14 04:37:59;;;;;;;20.88;4.07;;;;;;;8.97;100.00;98547.84;5074591;28;20044;-50
2023/03/14 04:40:26;;;;;;;18.73;4.10;;;;;;;8.89;100.00;98552.47;5070516;28;20524;-51
2023/03/14 04:42:57;;;;;;;23.73;4.05;;;;;;;8.77;100.00;98557.50;5075707;28;20389;-49
2023/03/14 04:45:23;;;;;;;18.33;4.30;;;;;;;8.81;100.00;98551.63;5070639;28;20052;-52
2023/03/14 04:47:50;;;;;;;18.55;4.35;;;;;;;8.93;100.00;98551.88;5075397;28;20091;-50
2023/03/14 04:50:18;;;;;;;19.42;4.60;;;;;;;8.92;100.00;98546.78;5067249;28;20514;-52
2023/03/14 04:52:46;;;;;;;17.90;3.92;;;;;;;8.91;100.00;98550.44;5090918;28;20045;-50
2023/03/14 04:55:12;;;;;;;16.83;4.00;;;;;;;9.00;100.00;98541.31;5074939;28;20086;-50
2023/03/14 04:57:39;;;;;;;14.27;3.50;;;;;;;9.00;100.00;98528.09;5085235;28;20090;-52
2023/03/14 05:00:09;;;;;;;15.23;3.45;;;;;;;9.01;100.00;98525.25;5074193;28;20140;-52
2023/03/14 05:02:45;;;;;;;21.75;3.95;;;;;;;9.06;100.00;98514.09;5071119;28;20131;-52
2023/03/14 05:05:40;;;;;;;13.63;3.60;;;;;;;9.03;100.00;98514.50;5104757;27;20417;-51
2023/03/14 05:08:27;;;;;;;21.85;3.67;;;;;;;9.03;100.00;98515.28;5105910;28;20139;-51
2023/03/14 05:11:03;;;;;;;21.65;3.00;;;;;;;8.97;100.00;98508.16;5109617;28;20044;-53
2023/03/14 05:13:39;;;;;;;12.98;2.78;;;;;;;8.96;100.00;98516.28;5104710;28;20124;-51
2023/03/14 05:16:26;;;;;;;15.93;2.80;;;;;;;8.99;100.00;98503.50;5108999;28;20139;-52
2023/03/14 05:19:01;;;;;;;8.93;1.80;;;;;;;8.87;100.00;98505.06;5104657;28;20040;-52
2023/03/14 05:21:47;;;;;;;8.35;1.60;;;;;;;8.98;100.00;98499.19;5108902;28;20095;-52
2023/03/14 05:24:29;;;;;;;7.30;1.27;;;;;;;8.98;100.00;98496.56;5099878;28;20123;-52
2023/03/14 05:27:07;;;;;;;6.05;1.35;;;;;;;9.03;100.00;98496.78;5109174;28;20048;-49
2023/03/14 05:29:41;;;;;;;5.00;1.30;;;;;;;9.03;100.00;98498.63;5104453;28;20051;-50
2023/03/14 05:32:29;;;;;;;4.22;1.30;;;;;;;9.11;100.00;98481.75;5109143;28;20401;-53
2023/03/14 05:35:16;;;;;;;5.05;1.23;;;;;;;9.09;100.00;98481.13;5104597;28;20032;-52
2023/03/14 05:38:03;;;;;;;3.80;1.30;;;;;;;9.11;100.00;98492.34;5105557;28;20059;-52
2023/03/14 05:40:46;;;;;;;3.90;1.30;;;;;;;9.18;100.00;98477.28;5100811;28;20398;-53
2023/03/14 05:43:25;;;;;;;3.90;1.42;;;;;;;9.13;100.00;98485.84;5109112;28;20048;-51
2023/03/14 05:45:59;;;;;;;9.75;1.73;;;;;;;9.06;100.00;98485.00;5103897;28;20477;-53
2023/03/14 05:48:41;;;;;;;7.80;1.67;;;;;;;9.14;100.00;98492.75;5108956;28;20040;-53
2023/03/14 05:51:28;;;;;;;4.57;1.48;;;;;;;9.07;100.00;98489.25;5104005;28;20139;-50
2023/03/14 05:54:15;;;;;;;4.55;1.30;;;;;;;9.08;100.00;98476.84;5106294;28;20036;-52
2023/03/14 05:56:48;;;;;;;3.28;1.27;;;;;;;9.11;100.00;98482.56;5103604;28;20047;-51
2023/03/14 05:59:38;;;;;;;4.53;1.35;;;;;;;9.20;100.00;98483.19;5106488;28;20048;-53
2023/03/14 06:02:16;;;;;;;3.55;1.40;;;;;;;9.13;100.00;98485.84;5100627;28;20477;-53
2023/03/14 06:04:53;;;;;;;4.57;1.55;;;;;;;9.13;100.00;98491.13;5107925;28;20397;-52
2023/03/14 06:07:19;;;;;;;1.92;0.95;;;;;;;9.18;100.00;98480.75;5103578;28;20405;-54
2023/03/14 06:09:46;;;;;;;2.80;1.10;;;;;;;9.18;100.00;98479.94;5108235;28;20044;-52
2023/03/14 06:12:17;;;;;;;3.08;1.30;;;;;;;9.21;100.00;98483.00;5100715;28;20564;-54
2023/03/14 06:14:45;;;;;;;2.35;0.75;;;;;;;9.27;100.00;98483.22;5073514;28;20189;-52
2023/03/14 06:17:12;;;;;;;3.13;0.98;;;;;;;9.26;100.00;98481.56;5093241;28;20079;-53
2023/03/14 06:19:47;;;;;;;2.97;0.98;;;;;;;9.26;100.00;98478.94;5089333;28;20123;-51
2023/03/14 06:22:14;;;;;;;1.95;0.90;;;;;;;9.21;100.00;98480.34;5094187;28;20478;-52
2023/03/14 06:24:43;;;;;;;2.38;1.30;;;;;;;9.32;100.00;98484.25;5087696;28;20119;-52
2023/03/14 06:27:09;;;;;;;5.53;1.40;;;;;;;9.25;100.00;98479.97;5093656;28;20039;-51
2023/03/14 06:29:36;;;;;;;2.22;1.05;;;;;;;9.26;100.00;98485.06;5085271;28;20036;-50
2023/03/14 06:32:05;;;;;;;1.17;0.65;;;;;;;9.43;100.00;98487.31;5094383;28;20040;-51
2023/03/14 06:34:31;;;;;;;2.13;0.88;;;;;;;9.40;100.00;98492.00;5093090;28;20512;-53
2023/03/14 06:36:58;;;;;;;1.80;0.98;;;;;;;9.43;100.00;98490.78;5090960;28;20478;-51
2023/03/14 06:39:25;;;;;;;3.58;1.25;;;;;;;9.48;99.69;98504.22;5092702;28;20039;-52
2023/03/14 06:42:01;;;;;;;1.95;1.00;;;;;;;9.51;100.00;98495.06;5092027;28;20192;-51
2023/03/14 06:44:28;;;;;;;2.05;1.10;;;;;;;9.51;100.00;98495.06;5092600;28;20051;-49
2023/03/14 06:46:55;;;;;;;3.70;1.05;;;;;;;9.52;100.00;98502.00;5086876;28;20040;-52
2023/03/14 06:49:22;;;;;;;2.50;1.02;;;;;;;9.64;100.00;98496.91;5093028;28;20052;-51
2023/03/14 06:51:52;;;;;;;5.40;1.30;;;;;;;9.68;99.60;98493.66;5088410;28;20047;-52
2023/03/14 06:54:18;;;;;;;3.08;1.10;;;;;;;9.59;99.40;98503.63;5091736;28;20478;-52
2023/03/14 06:56:46;;;;;;;3.72;0.95;;;;;;;9.61;100.00;98496.28;5089164;28;20055;-53
2023/03/14 06:59:13;;;;;;;1.58;0.88;;;;;;;9.70;99.65;98493.47;5092479;28;20063;-53
2023/03/14 07:01:40;;;;;;;2.55;1.20;;;;;;;9.61;99.53;98498.94;5085167;28;20097;-53
2023/03/14 07:04:10;;;;;;;1.90;1.05;;;;;;;9.61;100.00;98506.88;5091757;28;20101;-53
2023/03/14 07:06:44;;;;;;;2.42;0.80;;;;;;;9.60;100.00;98512.38;5077424;28;20232;-53
2023/03/14 07:09:11;;;;;;;3.35;1.02;;;;;;;9.52;100.00;98502.00;5069606;28;20500;-52
2023/03/14 07:11:41;;;;;;;5.78;1.70;;;;;;;9.55;100.00;98509.50;5089147;28;20044;-52
2023/03/14 07:14:08;;;;;;;6.07;2.25;;;;;;;9.70;100.00;98501.41;5091678;28;20059;-51
2023/03/14 07:16:35;;;;;;;3.65;1.40;;;;;;;9.62;100.00;98507.69;5091396;28;20040;-53
2023/03/14 07:19:02;;;;;;;1.60;0.98;;;;;;;9.66;100.00;98513.38;5087578;28;20043;-53
2023/03/14 07:21:31;;;;;;;2.25;1.00;;;;;;;9.63;100.00;98511.97;5092853;28;20044;-52
2023/03/14 07:23:59;;;;;;;6.95;1.35;;;;;;;9.64;100.00;98518.06;5087102;28;20409;-51
2023/03/14 07:26:26;;;;;;;7.05;1.40;;;;;;;9.64;100.00;98518.06;5082398;28;20485;-55
2023/03/14 07:28:53;;;;;;;23.65;7.38;;;;;;;9.78;100.00;98523.16;5080858;28;20048;-52
2023/03/14 07:31:21;;;;;;;8.70;2.75;;;;;;;9.94;100.00;98529.91;4981974;28;20083;-51
2023/03/14 07:33:49;;;;;;;2.10;1.10;;;;;;;9.95;100.00;98531.56;5045531;28;22440;-53
2023/03/14 07:36:17;;;;;;;3.30;1.20;;;;;;;10.10;100.00;98530.53;5041620;28;20048;-51
2023/03/14 07:38:44;;;;;;;1.80;0.90;;;;;;;10.00;100.00;98528.28;5024840;28;20664;-53
2023/03/14 07:41:31;;;;;;;2.45;1.25;;;;;;;10.03;100.00;98532.38;5059184;28;20406;-52
2023/03/14 07:44:18;;;;;;;4.38;0.90;;;;;;;10.04;100.00;98541.94;5019961;28;20048;-50
2023/03/14 07:46:45;;;;;;;4.35;1.38;;;;;;;10.00;100.00;98536.22;5060654;28;20045;-50
2023/03/14 07:49:11;;;;;;;3.63;1.20;;;;;;;10.03;100.00;98527.06;5026922;28;20646;-51
2023/03/14 07:51:38;;;;;;;5.90;1.13;;;;;;;10.03;100.00;98537.66;5001267;28;20052;-52
2023/03/14 07:54:05;;;;;;;4.18;1.25;;;;;;;10.22;100.00;98546.59;5044905;28;20055;-52
2023/03/14 07:56:31;;;;;;;2.35;1.20;;;;;;;10.28;100.00;98546.63;5058406;28;20382;-51
2023/03/14 07:58:58;;;;;;;2.25;1.10;;;;;;;10.18;100.00;98541.72;5028453;28;20135;-52
2023/03/14 08:01:25;;;;;;;3.42;1.20;;;;;;;10.27;100.00;98549.47;5057887;28;20489;-49
2023/03/14 08:03:51;;;;;;;7.60;1.40;;;;;;;10.28;100.00;98548.47;5043737;28;21629;-51
2023/03/14 08:06:18;;;;;;;3.58;1.45;;;;;;;10.22;100.00;98546.59;4968089;28;21666;-51
2023/03/14 08:08:44;;;;;;;1.75;1.10;;;;;;;10.24;100.00;98545.41;5048623;28;20119;-53
2023/03/14 08:11:12;;;;;;;4.20;1.50;;;;;;;10.44;100.00;98544.56;5031945;28;20406;-52
2023/03/14 08:13:39;;;;;;;3.95;1.45;;;;;;;10.46;100.00;98547.81;5051286;28;20046;-50
2023/03/14 08:16:06;;;;;;;3.92;1.45;;;;;;;10.52;100.00;98547.81;5067422;28;20033;-49
2023/03/14 08:18:33;;;;;;;2.85;1.52;;;;;;;10.57;99.90;98544.56;5056771;28;20040;-50
2023/03/14 08:21:03;;;;;;;3.08;1.20;;;;;;;10.54;98.77;98551.06;4962343;28;20044;-48
2023/03/14 08:23:31;;;;;;;5.07;1.52;;;;;;;10.59;100.00;98549.63;5022821;28;20060;-52
2023/03/14 08:25:58;;;;;;;3.60;1.50;;;;;;;10.49;99.26;98550.88;5047994;28;20700;-52
2023/03/14 08:28:30;;;;;;;9.27;1.73;;;;;;;10.38;100.00;98552.31;5058583;28;20085;-52
2023/03/14 08:30:57;;;;;;;3.63;1.38;;;;;;;10.51;100.00;98558.63;5048630;28;20055;-49
2023/03/14 08:33:25;;;;;;;6.93;1.48;;;;;;;10.60;100.00;98552.09;5058813;28;20056;-51
2023/03/14 08:35:53;;;;;;;2.33;1.27;;;;;;;10.66;99.13;98551.28;4977382;28;20060;-51
2023/03/14 08:38:20;;;;;;;3.78;1.50;;;;;;;10.63;98.80;98548.22;5037153;28;20037;-51
2023/03/14 08:40:47;;;;;;;9.30;1.70;;;;;;;10.63;99.82;98567.59;5045606;28;20044;-52
2023/03/14 08:43:13;;;;;;;3.35;1.40;;;;;;;10.60;99.80;98557.38;5055578;28;20061;-50
2023/03/14 08:45:40;;;;;;;5.68;1.58;;;;;;;10.50;100.00;98560.47;5058168;28;20040;-50
2023/03/14 08:48:07;;;;;;;5.40;1.45;;;;;;;10.60;100.00;98565.34;5045883;28;20044;-50
2023/03/14 08:50:34;;;;;;;4.43;1.52;;;;;;;10.52;100.00;98560.28;5057776;28;20052;-52
2023/03/14 08:53:01;;;;;;;5.95;1.60;;;;;;;10.48;100.00;98565.16;5026709;28;20125;-51
2023/03/14 08:55:27;;;;;;;5.72;1.75;;;;;;;10.25;100.00;98576.16;5050687;28;20115;-52
2023/03/14 08:57:54;;;;;;;10.75;2.10;;;;;;;10.07;100.00;98568.81;4996025;28;20180;-51
2023/03/14 09:00:21;;;;;;;5.75;1.85;;;;;;;10.18;100.00;98589.41;5034922;28;20044;-54
2023/03/14 09:02:48;;;;;;;5.82;1.67;;;;;;;10.15;100.00;98592.47;5026609;28;20059;-51
2023/03/14 09:05:15;;;;;;;7.95;1.80;;;;;;;10.22;100.00;98600.41;5038735;28;20059;-52
2023/03/14 09:07:42;;;;;;;6.32;2.17;;;;;;;10.08;100.00;98610.22;5042955;28;20052;-50
2023/03/14 09:10:09;;;;;;;8.48;2.00;;;;;;;10.00;100.00;98613.03;5055576;28;20052;-51
2023/03/14 09:12:36;;;;;;;5.75;1.92;;;;;;;9.98;100.00;98617.72;4996639;28;20056;-50
2023/03/14 09:15:03;;;;;;;5.00;1.80;;;;;;;9.85;100.00;98612.41;5006775;28;20052;-51
2023/03/14 09:17:30;;;;;;;10.38;1.95;;;;;;;9.81;100.00;98635.84;5036903;28;20144;-50
2023/03/14 09:19:57;;;;;;;7.82;1.83;;;;;;;9.66;100.00;98651.06;5044985;28;20040;-53
2023/03/14 09:22:25;;;;;;;4.05;1.70;;;;;;;9.14;100.00;98677.91;5036599;28;20123;-53
2023/03/14 09:24:52;;;;;;;3.67;1.27;;;;;;;8.96;100.00;98690.81;5056938;28;20040;-52
2023/03/14 09:27:19;;;;;;;4.22;1.25;;;;;;;8.81;100.00;98709.44;4997695;28;21479;-52
2023/03/14 09:29:46;;;;;;;4.97;1.50;;;;;;;8.67;100.00;98727.00;5015344;28;20440;-53
2023/03/14 09:32:13;;;;;;;4.30;1.35;;;;;;;8.63;100.00;98739.78;5039416;28;20052;-51
2023/03/14 09:34:39;;;;;;;3.92;1.20;;;;;;;8.48;100.00;98749.63;5030393;28;20054;-50
2023/03/14 09:37:07;;;;;;;3.25;1.27;;;;;;;8.44;100.00;98749.19;5036128;28;20541;-51
2023/03/14 09:39:34;;;;;;;3.00;1.17;;;;;;;8.40;100.00;98776.13;5049876;28;20151;-51
2023/03/14 09:42:07;;;;;;;5.07;1.52;;;;;;;8.15;100.00;98781.78;5014928;28;20059;-52
2023/03/14 09:44:38;;;;;;;4.55;1.40;;;;;;;8.22;100.00;98790.59;4989079;28;20102;-53
2023/03/14 09:47:07;;;;;;;5.25;1.70;;;;;;;8.19;100.00;98792.78;5023963;28;20061;-51
2023/03/14 09:49:38;;;;;;;4.28;1.60;;;;;;;8.21;100.00;98802.16;5046739;28;20056;-52
2023/03/14 09:52:13;;;;;;;7.00;1.60;;;;;;;8.16;100.00;98814.28;5063423;28;20379;-50
2023/03/14 09:54:47;;;;;;;6.55;1.90;;;;;;;8.20;100.00;98826.91;5042728;28;21045;-52
2023/03/14 09:57:18;;;;;;;4.88;1.90;;;;;;;8.27;100.00;98834.94;5063166;28;20190;-53
2023/03/14 09:59:47;;;;;;;6.43;1.80;;;;;;;8.22;100.00;98839.94;5023581;28;20056;-53
2023/03/14 10:02:20;;;;;;;7.25;2.03;;;;;;;8.24;100.00;98849.34;5062372;28;20056;-52
2023/03/14 10:04:50;;;;;;;6.95;1.85;;;;;;;8.17;100.00;98863.47;5026392;28;20048;-52
2023/03/14 10:07:21;;;;;;;5.18;1.80;;;;;;;8.11;100.00;98880.03;5008975;28;20052;-53
2023/03/14 10:09:50;;;;;;;5.75;1.85;;;;;;;8.18;100.00;98883.59;5043007;28;20056;-53
2023/03/14 10:12:18;;;;;;;8.60;2.03;;;;;;;8.17;100.00;98895.97;5061461;28;20040;-51
2023/03/14 10:14:50;;;;;;;4.53;1.70;;;;;;;8.12;100.00;98905.47;5033447;28;20270;-53
2023/03/14 10:17:17;;;;;;;;;;;;;;;8.13;100.00;98909.72;5036319;28;20052;-53
2023/03/14 10:19:59;;;;;;;4.85;1.70;;;;;;;8.21;100.00;98917.56;5035012;28;20046;-49
2023/03/14 10:22:30;;;;;;;8.25;2.15;;;;;;;8.26;100.00;98931.84;5010365;28;20075;-53
2023/03/14 10:25:02;;;;;;;8.18;1.80;;;;;;;8.36;100.00;98947.41;5046357;28;20129;-53
2023/03/14 10:27:30;;;;;;;;;;;;;;;8.26;100.00;98941.63;5043649;28;20198;-50
2023/03/14 10:30:01;;;;;;;4.88;1.83;;;;;;;8.24;98.73;98957.63;5046651;28;19928;-50
2023/03/14 10:32:34;;;;;;;5.50;1.90;;;;;;;8.06;100.00;98967.75;5039653;28;20048;-50
2023/03/14 10:35:18;;;;;;;8.77;2.35;;;;;;;7.94;100.00;98987.66;5023412;28;20045;-52
2023/03/14 10:37:56;;;;;;;5.53;2.10;;;;;;;7.97;100.00;99001.34;4987834;28;20048;-52
2023/03/14 10:40:29;;;;;;;5.35;1.88;;;;;;;7.94;100.00;98990.31;5045744;28;20513;-53
2023/03/14 10:42:58;;;;;;;8.55;2.40;;;;;;;7.81;100.00;99001.47;5059344;28;20048;-53
2023/03/14 10:45:34;;;;;;;9.25;2.35;;;;;;;7.86;100.00;99009.69;5029284;28;21647;-53
2023/03/14 10:48:22;;;;;;;8.43;2.40;;;;;;;7.83;100.00;99021.41;5058970;28;20045;-52
2023/03/14 10:50:55;;;;;;;5.88;2.00;;;;;;;7.87;100.00;99038.53;5003034;28;20230;-52
2023/03/14 10:53:22;;;;;;;5.35;2.28;;;;;;;7.79;100.00;99035.97;5036791;28;20246;-50
2023/03/14 10:55:51;;;;;;;11.25;2.60;;;;;;;7.69;100.00;99051.22;5020896;28;20040;-50
2023/03/14 10:58:21;;;;;;;7.53;2.95;;;;;;;7.72;100.00;99065.91;5060667;28;20527;-51
2023/03/14 11:00:57;;;;;;;9.63;3.33;;;;;;;7.57;100.00;99071.94;5048371;28;20041;-53
2023/03/14 11:03:28;;;;;;;9.88;3.60;;;;;;;7.51;100.00;99096.38;5037953;28;21620;-52
2023/03/14 11:06:05;;;;;;;9.27;3.25;;;;;;;7.50;100.00;99111.38;5045192;28;20070;-53
2023/03/14 11:09:11;;;;;;;7.70;2.30;;;;;;;7.14;100.00;99126.09;5058916;28;20099;-53
2023/03/14 11:11:44;;;;;;;6.07;2.40;;;;;;;6.94;100.00;99136.22;4986033;28;20056;-50
2023/03/14 11:14:31;;;;;;;8.88;2.17;;;;;;;6.95;100.00;99138.69;5015150;28;21235;-50
2023/03/14 11:20:24;;;;;;;9.60;2.80;;;;;;;6.85;100.00;99157.31;4992141;28;20423;-49
2023/03/14 11:23:21;;;;;;;9.20;2.53;;;;;;;6.97;100.00;99163.06;4991331;28;20050;-49
2023/03/14 11:28:48;;;;;;;6.03;2.13;;;;;;;7.03;100.00;99188.72;5035711;27;20509;-49
2023/03/14 11:31:26;;;;;;;8.13;2.60;;;;;;;6.89;100.00;99202.59;5071022;28;20051;-47
2023/03/14 11:34:02;;;;;;;10.25;2.78;;;;;;;6.92;100.00;99221.53;5077671;27;20058;-50
2023/03/14 11:36:37;;;;;;;8.00;2.30;;;;;;;6.82;100.00;99217.44;5067635;28;20122;-50
2023/03/14 11:39:13;;;;;;;9.05;1.92;;;;;;;6.56;100.00;99221.09;5091050;28;20143;-49
2023/03/14 11:41:43;;;;;;;7.28;1.80;;;;;;;6.63;100.00;99231.81;5026785;28;20040;-48
2023/03/14 11:44:19;;;;;;;5.20;1.70;;;;;;;6.69;100.00;99242.50;5064514;28;20059;-48
2023/03/14 11:47:01;;;;;;;10.20;2.67;;;;;;;6.69;100.00;99244.31;5059316;28;20128;-48
2023/03/14 11:49:40;;;;;;;8.07;1.83;;;;;;;6.85;99.53;99254.03;5095959;28;20856;-50
2023/03/14 11:52:20;;;;;;;8.02;2.00;;;;;;;6.93;96.69;99261.94;5078779;28;20039;-49